Terminal Aerodrome Forecast
Issued by NWS Charleston, WV

Current Version | Previous Version | Graphics & Text | Print | Product List | Glossary On
Versions: 1 2 3 4 5 6 7 8 9 10 11 12 13 14 15 16 17 18 19 20 21 22 23 24
000
FTUS41 KRLX 130903 AAA
TAFPKB
TAF AMD
KPKB 130903Z 1309/1406 34015G25KT 3SM -SN OVC015
      TEMPO 1310/1312 1SM -SN BKN010
     FM131200 35012G23KT P6SM OVC015
     FM131500 34012G18KT P6SM BKN020
     FM131800 34011G18KT P6SM BKN030
     FM132300 34009KT P6SM BKN035
     FM140200 34004KT P6SM SCT035=

USA.gov is the U.S. government's official web portal to all federal, state and local government web resources and services.